If you wish to contribute or participate in the discussions about articles you are invited to join SKYbrary as a registered user

 Actions

Røst Airport

From SKYbrary Wiki

ENRS
Airport
ICAO: ENRS – IATA: RET
Summary
Name Røst Airport
Region Europe
Territory Norway NO.gif
Location Røst, Nordland
Serving Røstlandet
Elevation 3 m <br />9.843 ft <br />9.843 ft3 m <br />
Coordinates 67° 31' 37.44" N, 12° 6' 9.42" E
Runways
Designator Length Width Surface ROPS
3/21 880 m2,887.139 ft <br /> 0 m0 ft <br /> UNK /


METAR
Observation ENRS 241150Z 25010KT 0700 DZ FG VV001 11/11 Q1014
Station Rost Flyplass
Date/Time 24 July 2021 11:50:00
Wind direction 250°
Wind speed 10 kts
Lowest cloud amount n/a
Temperature 11°C
Dew point 11°C
Humidity 100%
QNH 1014 hPa
Weather condition n/a

Røst Airport

ICAO: ENRS IATA: RET

Description

Regional airport serving the island and municipality of Røst in Nordland, Norway.

Climatology

Subpolar Oceanic climate (Köppen climate classification Cfc) - uniform precipitation distribution, temperatures are moderated by the proximity of the ocean and warm currents - cool summers and comparatively mild winters.

Maps

Terrain

Loading map...

Airport Layout

Loading map...


Accidents & Serious Incidents at or in vicinity of ENRS

None on SKYbrary